Time;durP1;ratioP1;P1;durP2;ratioP2;P2;SDS_P1;SDS_P2;PMS_P1;PMS_P2;Temp;Humidity;BMP_temperature;BMP_pressure;BME280_temperature;BME280_humidity;BME280_pressure;Samples;Min_cycle;Max_cycle;Signal;HPM_P1;HPM_P2
2023/12/11 06:00:24;;;;;;;2.55;0.50;;;9.90;91.60;;;;;;4951745;23;20125;31
2023/12/11 06:02:26;;;;;;;1.55;0.50;;;9.90;91.30;;;;;;4066793;29;20044;-79
2023/12/11 06:04:28;;;;;;;1.40;0.40;;;10.00;91.00;;;;;;4067959;29;20048;-79
2023/12/11 06:06:30;;;;;;;2.35;0.47;;;10.00;90.70;;;;;;4068530;29;20048;-80
2023/12/11 06:08:31;;;;;;;1.20;0.43;;;10.10;90.40;;;;;;4068528;29;20060;-78
2023/12/11 06:10:33;;;;;;;1.23;0.40;;;10.10;90.60;;;;;;4067987;29;20486;-79
2023/12/11 06:12:35;;;;;;;1.23;0.40;;;10.10;90.00;;;;;;4068337;29;20100;-79
2023/12/11 06:14:40;;;;;;;1.92;0.50;;;10.10;89.50;;;;;;4068623;29;20104;-78
2023/12/11 06:16:43;;;;;;;1.70;0.60;;;10.20;89.40;;;;;;4071363;29;20139;-79
2023/12/11 06:18:45;;;;;;;1.70;0.50;;;10.20;89.00;;;;;;4071710;29;20048;-77
2023/12/11 06:20:47;;;;;;;3.67;0.77;;;10.20;88.80;;;;;;4071477;29;20104;-79
2023/12/11 06:22:49;;;;;;;2.33;0.63;;;10.20;88.50;;;;;;4071535;29;20048;-78
2023/12/11 06:24:50;;;;;;;1.23;0.43;;;10.30;88.60;;;;;;4071586;29;20457;-81
2023/12/11 06:26:52;;;;;;;2.47;0.60;;;10.30;88.30;;;;;;4071514;29;20052;-79
2023/12/11 06:28:53;;;;;;;1.92;0.57;;;10.30;88.40;;;;;;4071495;29;20394;-79
2023/12/11 06:30:55;;;;;;;1.67;0.60;;;10.30;87.70;;;;;;4071389;29;20107;-79
2023/12/11 06:32:58;;;;;;;2.15;0.68;;;10.30;87.70;;;;;;4071174;29;20096;-81
2023/12/11 06:35:00;;;;;;;2.17;0.70;;;10.30;87.30;;;;;;4071268;29;20056;-79
2023/12/11 06:37:02;;;;;;;1.77;0.60;;;10.40;87.10;;;;;;4071013;29;20056;-78
2023/12/11 06:39:03;;;;;;;1.23;0.50;;;10.40;87.00;;;;;;4055556;29;20112;-79
2023/12/11 06:41:05;;;;;;;2.08;0.45;;;10.40;86.80;;;;;;4055550;29;20052;-79
2023/12/11 06:43:06;;;;;;;1.85;0.57;;;10.40;86.50;;;;;;4055630;29;20053;-80
2023/12/11 06:45:12;;;;;;;1.45;0.50;;;10.40;86.40;;;;;;4055401;29;20116;-79
2023/12/11 06:47:14;;;;;;;2.72;0.60;;;10.40;86.30;;;;;;4055608;29;20151;-78
2023/12/11 06:49:16;;;;;;;2.72;0.55;;;10.40;85.70;;;;;;4055772;29;20048;-78
2023/12/11 06:51:18;;;;;;;1.67;0.70;;;10.40;85.70;;;;;;4055326;29;20049;-79
2023/12/11 06:53:19;;;;;;;1.85;0.70;;;10.50;85.30;;;;;;4055130;29;20108;-80
2023/12/11 06:55:20;;;;;;;1.30;0.40;;;10.50;85.10;;;;;;4055292;29;20056;-79
2023/12/11 06:57:22;;;;;;;1.33;0.50;;;10.50;84.80;;;;;;4055118;29;20064;-78
2023/12/11 06:59:24;;;;;;;1.27;0.43;;;10.50;84.30;;;;;;4055144;29;20053;-79
2023/12/11 07:01:28;;;;;;;1.40;0.50;;;10.60;83.10;;;;;;4055045;29;20486;-79
2023/12/11 07:03:29;;;;;;;2.05;0.50;;;10.60;82.70;;;;;;4055104;29;20096;-78
2023/12/11 07:05:33;;;;;;;1.52;0.45;;;10.60;82.40;;;;;;4058500;29;20160;-78
2023/12/11 07:07:35;;;;;;;2.30;0.50;;;10.70;82.20;;;;;;4070496;29;20453;-79
2023/12/11 07:09:37;;;;;;;4.45;0.90;;;10.70;82.10;;;;;;4070760;29;20404;-79
2023/12/11 07:11:39;;;;;;;1.73;0.55;;;10.70;81.80;;;;;;4070351;29;20048;-79
2023/12/11 07:13:42;;;;;;;2.03;0.63;;;10.70;81.80;;;;;;4070613;29;20058;-79
2023/12/11 07:15:43;;;;;;;3.97;0.82;;;10.70;81.40;;;;;;4070524;29;20095;-80
2023/12/11 07:17:44;;;;;;;3.25;0.88;;;10.70;81.00;;;;;;4070511;29;20572;-79
2023/12/11 07:19:46;;;;;;;1.33;0.50;;;10.70;80.90;;;;;;4070409;29;20127;-77
2023/12/11 07:21:49;;;;;;;3.25;0.70;;;10.80;80.90;;;;;;4070507;29;20064;-77
2023/12/11 07:23:51;;;;;;;1.75;0.70;;;10.70;81.00;;;;;;4070744;29;20120;-79
2023/12/11 07:25:52;;;;;;;1.77;0.47;;;10.80;80.80;;;;;;4070373;29;20477;-78
2023/12/11 07:27:54;;;;;;;1.83;0.60;;;10.80;80.70;;;;;;4069713;29;20048;-80
2023/12/11 07:29:56;;;;;;;1.58;0.55;;;10.70;80.60;;;;;;4070345;29;20048;-77
2023/12/11 07:31:58;;;;;;;2.33;0.70;;;10.80;80.60;;;;;;4070276;29;20080;-78
2023/12/11 07:34:00;;;;;;;1.73;0.70;;;10.80;80.40;;;;;;4070191;29;20189;-79
2023/12/11 07:36:02;;;;;;;2.40;0.70;;;10.70;80.60;;;;;;4070276;29;20048;-79
2023/12/11 07:38:06;;;;;;;1.55;0.63;;;10.70;80.60;;;;;;4070139;29;20056;-79
2023/12/11 07:40:10;;;;;;;3.08;0.80;;;10.70;80.90;;;;;;4070141;29;20070;-80
2023/12/11 07:42:13;;;;;;;3.90;1.10;;;10.60;81.00;;;;;;4070175;29;20091;-79
2023/12/11 07:44:15;;;;;;;2.20;0.70;;;10.60;81.30;;;;;;4070190;29;20074;-78
2023/12/11 07:46:17;;;;;;;1.98;0.60;;;10.60;81.20;;;;;;4070440;29;20104;-79
2023/12/11 07:48:19;;;;;;;2.35;0.73;;;10.60;81.10;;;;;;4070803;29;20135;-79
2023/12/11 07:50:21;;;;;;;4.82;0.70;;;10.60;81.10;;;;;;4070258;29;20083;-78
2023/12/11 07:52:23;;;;;;;4.10;0.90;;;10.60;81.10;;;;;;4070088;29;20103;-78
2023/12/11 07:54:26;;;;;;;4.18;0.90;;;10.60;81.00;;;;;;4070128;29;20060;-79
2023/12/11 07:56:29;;;;;;;2.88;0.90;;;10.60;81.10;;;;;;4070137;29;20449;-79
2023/12/11 07:58:32;;;;;;;3.17;0.93;;;10.60;81.90;;;;;;4070090;29;20043;-78
2023/12/11 08:00:33;;;;;;;3.33;0.93;;;10.60;81.30;;;;;;4069817;29;20413;-79
2023/12/11 08:02:35;;;;;;;2.03;0.77;;;10.60;81.50;;;;;;4070596;29;20108;-78
2023/12/11 08:04:39;;;;;;;2.50;0.80;;;10.60;81.50;;;;;;4069157;29;20056;-79
2023/12/11 08:06:41;;;;;;;2.47;0.70;;;10.60;81.60;;;;;;4069997;29;20084;-79
2023/12/11 08:08:43;;;;;;;2.60;0.80;;;10.50;81.70;;;;;;4070018;29;20055;-77
2023/12/11 08:10:47;;;;;;;2.80;0.80;;;10.50;82.00;;;;;;4069386;29;20106;-78
2023/12/11 08:12:52;;;;;;;5.38;1.00;;;10.50;82.10;;;;;;4069428;29;20052;-80
2023/12/11 08:14:54;;;;;;;2.78;0.85;;;10.50;82.00;;;;;;4069942;29;20048;-80
2023/12/11 08:16:55;;;;;;;2.42;0.80;;;10.50;82.00;;;;;;4069789;29;20442;-79
2023/12/11 08:18:57;;;;;;;4.22;0.90;;;10.50;82.00;;;;;;4069844;29;20107;-78
2023/12/11 08:20:58;;;;;;;4.40;1.00;;;10.50;82.00;;;;;;4069571;29;20060;-77
2023/12/11 08:23:00;;;;;;;3.15;1.00;;;10.60;82.00;;;;;;4069914;29;20048;-79
2023/12/11 08:25:03;;;;;;;2.58;0.80;;;10.60;81.90;;;;;;4069834;29;20508;-77
2023/12/11 08:27:07;;;;;;;2.63;0.90;;;10.60;81.90;;;;;;4069867;29;20044;-77
2023/12/11 08:29:09;;;;;;;2.35;0.80;;;10.60;81.80;;;;;;4069545;29;20447;-77
2023/12/11 08:31:11;;;;;;;2.03;0.80;;;10.60;81.90;;;;;;4069896;29;20051;-79
2023/12/11 08:33:14;;;;;;;3.65;1.23;;;10.60;82.30;;;;;;4069682;29;20051;-79
2023/12/11 08:35:16;;;;;;;2.70;0.95;;;10.60;81.90;;;;;;4069705;29;20063;-78
2023/12/11 08:37:17;;;;;;;2.58;0.80;;;10.60;81.80;;;;;;4069755;29;20462;-77
2023/12/11 08:39:18;;;;;;;3.33;0.80;;;10.60;81.70;;;;;;4068677;29;20048;-78
2023/12/11 08:41:19;;;;;;;3.05;0.70;;;10.60;81.70;;;;;;4069109;29;20059;-77
2023/12/11 08:43:23;;;;;;;3.75;0.90;;;10.60;81.80;;;;;;4069349;29;20052;-79
2023/12/11 08:45:24;;;;;;;3.38;0.80;;;10.60;81.90;;;;;;4069247;29;20465;-78
2023/12/11 08:47:26;;;;;;;2.95;0.70;;;10.60;81.90;;;;;;4069160;29;20079;-78
2023/12/11 08:49:27;;;;;;;3.25;0.90;;;10.70;81.80;;;;;;4069297;29;20055;-78
2023/12/11 08:51:29;;;;;;;2.92;0.95;;;10.70;81.70;;;;;;4069174;29;20048;-79
2023/12/11 08:53:31;;;;;;;2.67;0.90;;;10.70;81.60;;;;;;4069586;29;20103;-80
2023/12/11 08:55:33;;;;;;;2.38;0.82;;;10.70;81.60;;;;;;4069360;29;20473;-79
2023/12/11 08:57:36;;;;;;;2.53;0.80;;;10.80;81.50;;;;;;4067952;29;20509;-78
2023/12/11 08:59:39;;;;;;;3.53;1.48;;;10.80;81.50;;;;;;4068777;29;20481;-78
2023/12/11 09:01:40;;;;;;;3.35;1.00;;;10.80;81.30;;;;;;4067641;29;20088;-79
2023/12/11 09:03:42;;;;;;;2.72;1.00;;;10.80;81.20;;;;;;4068876;29;20044;-78
2023/12/11 09:05:44;;;;;;;4.22;1.20;;;10.80;81.40;;;;;;4069132;29;20056;-79
2023/12/11 09:07:46;;;;;;;3.00;1.02;;;10.70;81.30;;;;;;4069085;29;20048;-78
2023/12/11 09:09:48;;;;;;;2.97;0.90;;;10.80;81.30;;;;;;4069085;29;20482;-78
2023/12/11 09:11:51;;;;;;;4.00;1.20;;;10.80;81.30;;;;;;4069122;29;20467;-80
2023/12/11 09:13:53;;;;;;;3.33;1.13;;;10.90;81.30;;;;;;4069161;29;20052;-78
2023/12/11 09:15:56;;;;;;;3.55;1.10;;;10.90;81.50;;;;;;4069146;29;20399;-79
2023/12/11 09:17:58;;;;;;;3.08;1.10;;;10.90;81.50;;;;;;4069464;29;20056;-79
2023/12/11 09:20:04;;;;;;;2.70;1.10;;;10.90;81.40;;;;;;4069253;29;20534;-78
2023/12/11 09:22:05;;;;;;;4.10;1.10;;;10.90;81.50;;;;;;4074214;29;20059;-80
2023/12/11 09:24:07;;;;;;;2.40;0.90;;;10.90;82.30;;;;;;4070398;29;20052;-79
2023/12/11 09:26:09;;;;;;;1.98;0.90;;;10.80;81.80;;;;;;4068978;29;20482;-79
2023/12/11 09:28:11;;;;;;;2.33;0.90;;;10.80;81.90;;;;;;4069543;29;20044;-79
2023/12/11 09:30:14;;;;;;;2.92;1.10;;;10.80;82.20;;;;;;4070394;29;20052;-81
2023/12/11 09:32:18;;;;;;;3.45;1.13;;;10.80;82.20;;;;;;4078131;29;20052;-79
2023/12/11 09:34:20;;;;;;;3.08;1.10;;;10.80;82.20;;;;;;4076052;29;20056;-79
2023/12/11 09:36:20;;;;;;;2.88;1.00;;;10.80;82.20;;;;;;4076878;29;20076;-78
2023/12/11 09:38:22;;;;;;;2.38;0.90;;;10.80;82.30;;;;;;4079180;29;20048;-78
2023/12/11 09:40:24;;;;;;;5.00;1.00;;;10.80;82.50;;;;;;4073427;29;20553;-80
2023/12/11 09:42:26;;;;;;;3.17;0.90;;;10.80;82.50;;;;;;4069214;29;20102;-81
2023/12/11 09:44:30;;;;;;;2.50;1.00;;;10.80;82.50;;;;;;4069182;29;20048;-77
2023/12/11 09:46:39;;;;;;;2.75;1.08;;;10.90;82.40;;;;;;4069667;29;20056;-77
2023/12/11 09:48:42;;;;;;;5.68;2.78;;;10.90;82.20;;;;;;4071958;29;20103;-78
2023/12/11 09:50:45;;;;;;;4.30;2.08;;;11.00;82.10;;;;;;4070815;29;20059;-80
2023/12/11 09:52:46;;;;;;;6.43;2.38;;;11.00;82.20;;;;;;4071451;29;20079;-78
2023/12/11 09:54:48;;;;;;;4.97;1.25;;;11.00;82.10;;;;;;4071710;29;20090;-79
2023/12/11 09:56:49;;;;;;;2.03;0.88;;;11.00;82.00;;;;;;4071960;29;20473;-80
2023/12/11 09:58:52;;;;;;;2.45;0.88;;;11.00;82.00;;;;;;4072057;29;20048;-79
2023/12/11 10:01:00;;;;;;;2.35;0.98;;;11.00;82.00;;;;;;4071723;29;20060;-80
2023/12/11 10:03:05;;;;;;;2.88;0.90;;;11.00;82.00;;;;;;4071899;29;20052;-78
2023/12/11 10:05:11;;;;;;;3.97;0.93;;;11.00;82.10;;;;;;4071931;29;20111;-77
2023/12/11 10:07:13;;;;;;;4.82;0.90;;;11.00;82.10;;;;;;4071903;29;20108;-79
2023/12/11 10:09:28;;;;;;;2.15;0.85;;;11.00;82.40;;;;;;4071528;29;20094;-78
2023/12/11 10:11:30;;;;;;;2.65;0.80;;;11.00;82.30;;;;;;4069420;29;20052;-80
2023/12/11 10:13:30;;;;;;;2.95;0.90;;;11.00;82.20;;;;;;4071673;29;20048;-81
2023/12/11 10:15:34;;;;;;;6.78;3.10;;;11.00;82.30;;;;;;4071841;29;20111;-80
2023/12/11 10:17:36;;;;;;;10.85;5.82;;;11.00;82.30;;;;;;4071603;29;20048;-80
2023/12/11 10:19:38;;;;;;;5.55;2.10;;;11.10;82.30;;;;;;4071633;29;20104;-80
2023/12/11 10:21:42;;;;;;;4.82;1.40;;;11.10;82.30;;;;;;4071695;29;20052;-79
2023/12/11 10:23:44;;;;;;;4.40;1.20;;;11.10;82.30;;;;;;4071304;29;20060;-79
2023/12/11 10:25:49;;;;;;;5.13;1.17;;;11.10;82.50;;;;;;4071705;29;20112;-79
2023/12/11 10:27:50;;;;;;;2.53;1.00;;;11.10;82.30;;;;;;4071549;29;20281;-81
2023/12/11 10:30:11;;;;;;;3.53;1.10;;;11.10;82.30;;;;;;4071351;29;20071;-80
2023/12/11 10:32:12;;;;;;;2.35;0.70;;;11.10;82.40;;;;;;4063291;29;20525;-79
2023/12/11 10:34:14;;;;;;;3.03;0.95;;;11.20;82.30;;;;;;4071157;29;20139;-80
2023/12/11 10:36:16;;;;;;;3.90;0.90;;;11.20;82.20;;;;;;4071335;29;20450;-78
2023/12/11 10:38:27;;;;;;;4.70;1.20;;;11.30;81.90;;;;;;4069508;29;20044;-79
2023/12/11 10:40:39;;;;;;;2.92;1.00;;;11.50;81.70;;;;;;4053594;29;20064;-78
2023/12/11 10:42:41;;;;;;;2.20;0.90;;;11.60;80.90;;;;;;4053761;29;20057;-79
2023/12/11 10:44:44;;;;;;;3.13;0.90;;;11.60;80.80;;;;;;4053524;29;20387;-77
2023/12/11 10:46:45;;;;;;;4.38;1.05;;;11.60;80.30;;;;;;4053789;29;20462;-77
2023/12/11 10:48:47;;;;;;;4.88;1.00;;;11.70;80.20;;;;;;4053472;29;20068;-78
2023/12/11 10:50:49;;;;;;;3.22;0.95;;;11.70;80.20;;;;;;4053390;29;20455;-76
2023/12/11 10:52:50;;;;;;;2.30;0.70;;;11.70;80.20;;;;;;4053590;29;20059;-75
2023/12/11 10:54:54;;;;;;;2.80;0.88;;;11.70;79.90;;;;;;4053209;29;20061;-76
2023/12/11 10:56:58;;;;;;;3.42;0.90;;;11.70;80.60;;;;;;4051440;29;20068;-78
2023/12/11 10:59:00;;;;;;;2.67;0.90;;;11.70;80.10;;;;;;4064889;29;20061;-77
2023/12/11 11:01:02;;;;;;;2.40;0.90;;;11.80;80.10;;;;;;4068079;29;20568;-78
2023/12/11 11:03:08;;;;;;;3.40;0.98;;;11.70;79.80;;;;;;4067803;29;20221;-79
2023/12/11 11:05:09;;;;;;;;;;;11.80;79.60;;;;;;4069047;29;20079;-80
2023/12/11 11:07:17;;;;;;;4.57;1.30;;;11.80;79.20;;;;;;4068485;29;19923;-77
2023/12/11 11:09:28;;;;;;;4.13;1.55;;;11.80;79.50;;;;;;4068940;29;20060;-80
2023/12/11 11:11:39;;;;;;;5.55;2.10;;;11.80;79.00;;;;;;4068637;29;20083;-79
2023/12/11 11:13:57;;;;;;;4.68;1.20;;;11.90;78.90;;;;;;4068794;29;20052;-78
2023/12/11 11:15:59;;;;;;;2.72;1.00;;;11.90;78.70;;;;;;4068639;29;20048;-77
2023/12/11 11:18:03;;;;;;;3.15;1.00;;;11.90;78.70;;;;;;4068696;29;20056;-77
2023/12/11 11:20:14;;;;;;;4.35;1.08;;;12.00;78.50;;;;;;4068762;29;20063;-81
2023/12/11 11:22:22;;;;;;;5.20;1.00;;;11.90;78.40;;;;;;4068837;29;20142;-80
2023/12/11 11:24:28;;;;;;;1.98;0.73;;;11.90;78.50;;;;;;4068722;29;20056;-79
2023/12/11 11:26:36;;;;;;;2.88;1.02;;;11.90;78.20;;;;;;4068016;29;20052;-81
2023/12/11 11:28:40;;;;;;;4.47;1.20;;;12.00;78.40;;;;;;4068272;29;20141;-81
2023/12/11 11:30:52;;;;;;;3.30;1.05;;;11.90;78.20;;;;;;4068346;29;20557;-79
2023/12/11 11:32:55;;;;;;;3.08;0.93;;;12.00;78.10;;;;;;4068163;29;20063;-80
2023/12/11 11:34:57;;;;;;;2.70;0.93;;;11.90;78.20;;;;;;4068216;29;20080;-80
2023/12/11 11:36:59;;;;;;;3.08;0.90;;;12.00;77.90;;;;;;4068355;29;20060;-79
2023/12/11 11:39:02;;;;;;;2.70;0.80;;;12.00;77.40;;;;;;4068116;29;20507;-80
2023/12/11 11:41:04;;;;;;;3.80;1.10;;;12.00;77.40;;;;;;4068377;29;20081;-80
2023/12/11 11:43:10;;;;;;;3.28;0.80;;;12.10;77.60;;;;;;4068285;29;20052;-79
2023/12/11 11:45:12;;;;;;;2.92;0.73;;;12.10;77.40;;;;;;4068164;29;20068;-80
2023/12/11 11:47:18;;;;;;;2.60;0.75;;;12.10;76.20;;;;;;4068546;29;20063;-79
2023/12/11 11:49:28;;;;;;;1.92;0.68;;;12.20;76.20;;;;;;4069285;29;20560;-79
2023/12/11 11:51:30;;;;;;;3.40;0.73;;;12.30;76.60;;;;;;4068295;29;20107;-80
2023/12/11 11:53:32;;;;;;;2.72;0.75;;;12.30;76.00;;;;;;4068427;29;20056;-78
2023/12/11 11:55:34;;;;;;;6.20;1.88;;;12.30;75.50;;;;;;4069878;29;20383;-78
2023/12/11 11:57:36;;;;;;;2.67;0.73;;;12.30;76.10;;;;;;4068141;29;20060;-79
2023/12/11 11:59:46;;;;;;;4.95;1.00;;;12.30;76.00;;;;;;4068686;29;20044;-78
2023/12/11 12:01:52;;;;;;;1.80;0.60;;;12.20;76.20;;;;;;4067969;29;20064;-76
2023/12/11 12:03:55;;;;;;;1.92;0.77;;;12.30;76.10;;;;;;4067838;29;20056;-78
2023/12/11 12:05:57;;;;;;;3.05;1.00;;;12.30;76.20;;;;;;4067955;29;20127;-78
2023/12/11 12:08:00;;;;;;;2.20;0.70;;;12.30;76.20;;;;;;4067921;29;20048;-76
2023/12/11 12:10:02;;;;;;;2.13;0.60;;;12.30;76.10;;;;;;4067962;29;20443;-78
2023/12/11 12:12:05;;;;;;;2.85;1.10;;;12.30;75.60;;;;;;4067880;29;20055;-78
2023/12/11 12:14:13;;;;;;;5.07;2.30;;;12.30;75.90;;;;;;4067402;29;20060;-81
2023/12/11 12:16:28;;;;;;;2.75;0.90;;;12.30;75.60;;;;;;4068175;29;20048;-79
2023/12/11 12:18:30;;;;;;;2.45;0.80;;;12.30;75.80;;;;;;4067807;29;20561;-79
2023/12/11 12:20:33;;;;;;;2.88;0.93;;;12.30;75.70;;;;;;4067488;29;20391;-78
2023/12/11 12:22:35;;;;;;;2.50;0.80;;;12.30;75.60;;;;;;4067724;29;20048;-78
2023/12/11 12:24:40;;;;;;;4.07;1.00;;;12.20;75.10;;;;;;4067263;29;20063;-77
2023/12/11 12:26:42;;;;;;;2.63;0.80;;;12.20;74.60;;;;;;4067281;29;20074;-78
2023/12/11 12:28:44;;;;;;;3.92;0.80;;;12.10;74.80;;;;;;4067658;29;20186;-82
2023/12/11 12:30:47;;;;;;;2.53;0.70;;;12.10;74.60;;;;;;4067612;29;20143;-80
2023/12/11 12:32:50;;;;;;;4.22;0.90;;;12.20;75.10;;;;;;4064956;29;20063;-79
2023/12/11 12:34:55;;;;;;;3.08;0.80;;;12.20;74.70;;;;;;4067389;29;20143;-80
2023/12/11 12:36:58;;;;;;;2.70;0.70;;;12.20;74.50;;;;;;4066977;29;20056;-80
2023/12/11 12:39:01;;;;;;;4.35;0.98;;;12.10;74.10;;;;;;4066612;29;20084;-80
2023/12/11 12:41:03;;;;;;;5.15;1.17;;;12.10;74.00;;;;;;4066980;29;20048;-80
2023/12/11 12:43:09;;;;;;;5.05;1.00;;;12.10;73.80;;;;;;4066575;29;20144;-79
2023/12/11 12:45:12;;;;;;;4.30;0.95;;;12.20;73.90;;;;;;4067233;29;20111;-80
2023/12/11 12:47:15;;;;;;;2.42;0.75;;;12.40;72.20;;;;;;4067497;29;20474;-79
2023/12/11 12:49:18;;;;;;;3.33;0.75;;;12.40;72.50;;;;;;4066747;29;20060;-78
2023/12/11 12:51:19;;;;;;;4.57;0.90;;;12.50;71.90;;;;;;4066737;29;20477;-81
2023/12/11 12:53:23;;;;;;;3.17;0.80;;;12.50;71.50;;;;;;4066879;29;20054;-81
2023/12/11 12:55:29;;;;;;;2.80;0.70;;;12.60;70.50;;;;;;4067417;29;20105;-80
2023/12/11 12:57:36;;;;;;;4.70;1.25;;;13.00;69.10;;;;;;4064457;29;20135;-81
2023/12/11 12:59:41;;;;;;;3.80;0.80;;;14.60;69.20;;;;;;4067370;29;20135;-79
2023/12/11 13:01:43;;;;;;;2.80;0.90;;;17.90;57.80;;;;;;4066825;29;20584;-80
2023/12/11 13:03:45;;;;;;;2.75;1.00;;;20.50;51.30;;;;;;4066103;29;20052;-79
2023/12/11 13:05:50;;;;;;;4.55;1.00;;;22.50;45.70;;;;;;4067102;29;20052;-79
2023/12/11 13:07:57;;;;;;;3.13;0.90;;;23.90;43.10;;;;;;4059514;29;20087;-79
2023/12/11 13:10:10;;;;;;;4.75;1.20;;;23.70;40.60;;;;;;4066948;29;20055;-80
2023/12/11 13:12:12;;;;;;;3.40;1.10;;;24.40;40.70;;;;;;4067127;29;20094;-78
2023/12/11 13:14:14;;;;;;;4.35;1.00;;;24.90;38.40;;;;;;4067125;29;20056;-80
2023/12/11 13:16:16;;;;;;;3.05;0.93;;;23.30;38.70;;;;;;4066953;29;20056;-76
2023/12/11 13:18:19;;;;;;;6.47;1.30;;;23.20;39.20;;;;;;4066927;29;20052;-79
2023/12/11 13:20:21;;;;;;;5.68;2.20;;;20.40;43.00;;;;;;4066858;29;20091;-79
2023/12/11 13:22:23;;;;;;;4.88;1.20;;;22.30;42.10;;;;;;4066725;29;20107;-79
2023/12/11 13:24:25;;;;;;;3.08;1.02;;;23.50;39.10;;;;;;4066317;29;20055;-78
2023/12/11 13:26:28;;;;;;;3.15;1.02;;;23.90;37.80;;;;;;4066340;29;20107;-80
2023/12/11 13:28:30;;;;;;;4.22;1.05;;;24.70;37.10;;;;;;4066857;29;20132;-81
2023/12/11 13:30:31;;;;;;;4.80;1.40;;;25.00;35.90;;;;;;4066866;29;20055;-77
2023/12/11 13:32:33;;;;;;;3.92;0.90;;;24.80;34.70;;;;;;4066353;29;20056;-79
2023/12/11 13:34:35;;;;;;;3.55;1.08;;;22.70;36.60;;;;;;4066809;29;20463;-79
2023/12/11 13:36:37;;;;;;;5.53;1.25;;;21.10;40.80;;;;;;4066768;29;20086;-78
2023/12/11 13:38:41;;;;;;;3.92;0.90;;;20.10;42.20;;;;;;4066467;29;20060;-80
2023/12/11 13:40:43;;;;;;;4.13;0.98;;;18.10;46.20;;;;;;4066896;29;20048;-82
2023/12/11 13:42:44;;;;;;;4.40;1.27;;;17.30;48.70;;;;;;4066796;29;20052;-79
2023/12/11 13:44:47;;;;;;;3.28;1.20;;;17.50;49.10;;;;;;4066645;29;20048;-78
2023/12/11 13:46:48;;;;;;;5.25;1.10;;;17.60;48.80;;;;;;4066734;29;20124;-80
2023/12/11 13:48:49;;;;;;;6.40;1.10;;;17.30;48.30;;;;;;4066778;29;20060;-79
2023/12/11 13:50:51;;;;;;;4.15;0.95;;;17.00;49.30;;;;;;4067780;29;20044;-78
2023/12/11 13:52:56;;;;;;;3.90;1.10;;;16.80;50.20;;;;;;4068462;29;20051;-78
2023/12/11 13:55:00;;;;;;;5.22;1.00;;;16.90;49.70;;;;;;4066601;29;20056;-77
2023/12/11 13:57:03;;;;;;;4.85;1.13;;;16.20;50.90;;;;;;4064585;29;20055;-79
2023/12/11 13:59:05;;;;;;;3.55;1.00;;;16.40;51.30;;;;;;4066938;29;20056;-78
2023/12/11 14:01:08;;;;;;;3.53;0.95;;;16.90;50.80;;;;;;4066118;29;20076;-77
2023/12/11 14:03:09;;;;;;;5.75;1.17;;;17.10;50.10;;;;;;4066221;29;20059;-78
2023/12/11 14:05:13;;;;;;;5.07;1.05;;;17.10;49.60;;;;;;4066428;29;20056;-78
2023/12/11 14:07:15;;;;;;;4.10;1.10;;;16.70;50.30;;;;;;4067527;29;20056;-78
2023/12/11 14:09:17;;;;;;;3.67;1.10;;;16.30;50.80;;;;;;4067153;29;20462;-77
2023/12/11 14:11:20;;;;;;;6.05;1.13;;;16.00;51.70;;;;;;4067099;29;20124;-78
2023/12/11 14:13:22;;;;;;;2.92;0.77;;;15.70;52.40;;;;;;4066801;29;20052;-76
2023/12/11 14:15:23;;;;;;;4.88;1.33;;;15.50;53.30;;;;;;4066401;29;20111;-79
2023/12/11 14:17:26;;;;;;;4.03;1.05;;;15.40;53.90;;;;;;4066729;29;20063;-77
2023/12/11 14:19:30;;;;;;;5.53;1.10;;;15.10;54.50;;;;;;4066610;29;20490;-79
2023/12/11 14:21:32;;;;;;;4.65;1.05;;;14.80;55.60;;;;;;4066610;29;20064;-79
2023/12/11 14:23:33;;;;;;;3.83;1.00;;;14.70;56.30;;;;;;4066330;29;20048;-79
2023/12/11 14:25:35;;;;;;;5.10;0.88;;;14.60;56.50;;;;;;4066522;29;20086;-78
2023/12/11 14:27:37;;;;;;;4.80;1.10;;;14.20;57.60;;;;;;4065718;29;20147;-78
2023/12/11 14:29:40;;;;;;;3.70;1.00;;;14.10;58.20;;;;;;4066048;29;20099;-77
2023/12/11 14:31:42;;;;;;;5.65;1.20;;;14.00;58.20;;;;;;4066403;29;20052;-77
2023/12/11 14:33:44;;;;;;;6.22;1.10;;;13.90;59.10;;;;;;4066432;29;20055;-80
2023/12/11 14:35:46;;;;;;;5.68;1.67;;;13.90;58.80;;;;;;4066788;29;20059;-80
2023/12/11 14:37:47;;;;;;;5.38;1.17;;;13.80;59.10;;;;;;4069220;29;20070;-79
2023/12/11 14:39:50;;;;;;;6.78;1.40;;;13.70;59.60;;;;;;4069157;29;20473;-77
2023/12/11 14:41:52;;;;;;;5.07;1.52;;;13.60;59.70;;;;;;4070749;29;20091;-78
2023/12/11 14:43:55;;;;;;;5.78;1.15;;;13.40;61.10;;;;;;4069693;29;20048;-77
2023/12/11 14:45:57;;;;;;;4.57;1.20;;;13.30;61.10;;;;;;4068770;29;20060;-78
2023/12/11 14:47:59;;;;;;;5.10;1.23;;;13.30;61.40;;;;;;4069028;29;20461;-78
2023/12/11 14:50:00;;;;;;;5.50;1.20;;;13.10;62.30;;;;;;4068710;29;20088;-78
2023/12/11 14:52:02;;;;;;;5.10;1.30;;;13.10;62.30;;;;;;4068917;29;20108;-78
2023/12/11 14:54:04;;;;;;;3.28;0.93;;;13.20;62.20;;;;;;4068703;29;20075;-79
2023/12/11 14:56:07;;;;;;;6.40;1.58;;;13.20;62.30;;;;;;4066906;29;20056;-79
2023/12/11 14:58:09;;;;;;;6.65;1.17;;;13.20;62.60;;;;;;4068824;29;20060;-78
2023/12/11 15:00:13;;;;;;;7.20;1.50;;;13.10;62.80;;;;;;4069024;29;20064;-80
2023/12/11 15:02:16;;;;;;;4.60;1.20;;;13.20;63.20;;;;;;4068870;29;20115;-78
2023/12/11 15:04:18;;;;;;;4.55;1.10;;;13.10;63.80;;;;;;4069093;29;20079;-81
2023/12/11 15:06:19;;;;;;;4.70;1.00;;;13.10;64.10;;;;;;4068874;29;20056;-77
2023/12/11 15:08:21;;;;;;;3.70;1.35;;;13.10;64.40;;;;;;4068853;29;20056;-78
2023/12/11 15:10:25;;;;;;;3.75;0.93;;;13.10;64.80;;;;;;4068927;29;20648;-77
2023/12/11 15:12:27;;;;;;;7.60;1.48;;;13.00;65.20;;;;;;4066599;29;20138;-78
2023/12/11 15:14:30;;;;;;;6.10;1.33;;;13.00;65.50;;;;;;4068184;29;20108;-77
2023/12/11 15:16:36;;;;;;;6.50;1.30;;;12.90;66.20;;;;;;4068390;29;20075;-78
2023/12/11 15:18:40;;;;;;;4.13;1.15;;;12.70;66.50;;;;;;4068668;29;20052;-78
2023/12/11 15:20:43;;;;;;;3.97;1.15;;;12.60;66.90;;;;;;4068659;29;20056;-78
2023/12/11 15:22:44;;;;;;;5.18;1.13;;;12.50;67.60;;;;;;4067402;29;20056;-79
2023/12/11 15:24:46;;;;;;;6.32;1.40;;;12.30;67.50;;;;;;4068490;29;20159;-78
2023/12/11 15:26:48;;;;;;;5.20;1.50;;;12.20;68.20;;;;;;4068354;29;20063;-78
2023/12/11 15:28:49;;;;;;;3.72;1.02;;;12.10;68.60;;;;;;4067832;29;20048;-78
2023/12/11 15:30:50;;;;;;;4.93;1.20;;;12.00;69.00;;;;;;4053131;29;20458;-78
2023/12/11 15:32:54;;;;;;;4.22;0.98;;;12.00;69.30;;;;;;4053497;29;20063;-79
2023/12/11 15:34:56;;;;;;;4.38;1.20;;;12.00;69.50;;;;;;4070263;29;20079;-79
2023/12/11 15:36:58;;;;;;;8.48;3.00;;;11.90;69.50;;;;;;4070847;29;20119;-78
2023/12/11 15:38:58;;;;;;;9.80;3.40;;;11.90;69.80;;;;;;4072698;29;20088;-78
2023/12/11 15:41:01;;;;;;;6.53;1.85;;;11.80;69.90;;;;;;4075560;29;20056;-78
2023/12/11 15:43:04;;;;;;;7.68;2.20;;;11.70;69.80;;;;;;4069662;29;20052;-80
2023/12/11 15:45:06;;;;;;;6.45;1.70;;;11.70;69.80;;;;;;4068215;29;20095;-79
2023/12/11 15:47:09;;;;;;;7.15;1.55;;;11.70;69.80;;;;;;4069322;29;20058;-79
2023/12/11 15:49:11;;;;;;;9.20;3.05;;;11.60;69.80;;;;;;4071564;29;20083;-78
2023/12/11 15:51:15;;;;;;;6.03;1.38;;;11.50;70.10;;;;;;4073905;29;20072;-78
2023/12/11 15:53:16;;;;;;;6.15;1.30;;;11.50;70.20;;;;;;4070006;29;20052;-78
2023/12/11 15:55:19;;;;;;;6.20;1.20;;;11.50;70.10;;;;;;4069089;29;20055;-78
2023/12/11 15:57:21;;;;;;;7.55;1.35;;;11.40;70.30;;;;;;4066209;29;20110;-79
2023/12/11 15:59:23;;;;;;;5.80;1.65;;;11.40;70.50;;;;;;4068813;29;20398;-79
2023/12/11 16:01:25;;;;;;;5.38;1.85;;;11.30;70.50;;;;;;4068605;29;20111;-80
2023/12/11 16:03:27;;;;;;;4.40;1.40;;;11.30;70.70;;;;;;4066918;29;20080;-82
2023/12/11 16:05:30;;;;;;;5.88;1.52;;;11.30;70.70;;;;;;4061245;29;20048;-78
2023/12/11 16:07:32;;;;;;;8.35;1.88;;;11.30;70.80;;;;;;4066311;29;20083;-79
2023/12/11 16:09:35;;;;;;;4.55;1.30;;;11.30;70.80;;;;;;4066907;29;20479;-77
2023/12/11 16:11:38;;;;;;;7.53;1.38;;;11.20;70.90;;;;;;4065847;29;20173;-79
2023/12/11 16:13:40;;;;;;;8.18;1.90;;;11.20;71.20;;;;;;4067085;29;20052;-78
2023/12/11 16:15:42;;;;;;;6.25;1.48;;;11.20;71.40;;;;;;4062421;29;20057;-78
2023/12/11 16:17:44;;;;;;;6.53;1.60;;;11.20;71.70;;;;;;4067749;29;20186;-77
2023/12/11 16:19:47;;;;;;;7.13;1.70;;;11.10;72.00;;;;;;4066888;29;20477;-77
2023/12/11 16:21:51;;;;;;;7.20;1.92;;;11.20;72.20;;;;;;4067118;29;20052;-78
2023/12/11 16:23:52;;;;;;;6.35;1.73;;;11.10;72.30;;;;;;4066589;29;20044;-80
2023/12/11 16:25:53;;;;;;;7.75;1.60;;;11.10;71.70;;;;;;4066590;29;20095;-78
2023/12/11 16:27:54;;;;;;;5.38;1.50;;;11.20;72.40;;;;;;4067458;29;20515;-77
2023/12/11 16:29:57;;;;;;;6.88;1.70;;;11.10;72.60;;;;;;4066982;29;20080;-77
2023/12/11 16:31:59;;;;;;;5.32;1.75;;;11.10;72.70;;;;;;4067204;29;20052;-77
2023/12/11 16:34:02;;;;;;;8.27;1.75;;;11.00;72.90;;;;;;4067027;29;20052;-77
2023/12/11 16:36:11;;;;;;;8.52;1.77;;;11.00;73.10;;;;;;4066808;29;20064;-77
2023/12/11 16:38:15;;;;;;;5.90;1.85;;;11.00;73.50;;;;;;4065573;29;20092;-78
2023/12/11 16:40:17;;;;;;;5.97;1.73;;;10.90;73.70;;;;;;4066354;29;20099;-79